sensor_id;sensor_type;location;lat;lon;timestamp;pressure;altitude;pressure_sealevel;temperature;humidity
3524;BME280;1776;53.330;11.498;2023-03-25T00:00:08;23369.53;;;-147.39;76.61
3524;BME280;1776;53.330;11.498;2023-03-25T00:02:51;23308.53;;;-147.39;76.56
3524;BME280;1776;53.330;11.498;2023-03-25T00:05:20;23284.16;;;-147.39;76.84
3524;BME280;1776;53.330;11.498;2023-03-25T00:07:49;23257.72;;;-147.39;76.73
3524;BME280;1776;53.330;11.498;2023-03-25T00:10:16;23235.38;;;-147.39;76.68
3524;BME280;1776;53.330;11.498;2023-03-25T00:12:41;23245.53;;;-147.39;77.00
3524;BME280;1776;53.330;11.498;2023-03-25T00:15:08;23227.22;;;-147.39;77.07
3524;BME280;1776;53.330;11.498;2023-03-25T00:17:35;23282.13;;;-147.39;76.82
3524;BME280;1776;53.330;11.498;2023-03-25T00:20:01;23302.44;;;-147.39;77.21
3524;BME280;1776;53.330;11.498;2023-03-25T00:22:29;23284.16;;;-147.39;76.83
3524;BME280;1776;53.330;11.498;2023-03-25T00:24:55;23263.81;;;-147.39;77.11
3524;BME280;1776;53.330;11.498;2023-03-25T00:27:20;23227.22;;;-147.39;76.92
3524;BME280;1776;53.330;11.498;2023-03-25T00:29:45;23225.19;;;-147.39;76.78
3524;BME280;1776;53.330;11.498;2023-03-25T00:32:12;23249.59;;;-147.39;76.94
3524;BME280;1776;53.330;11.498;2023-03-25T00:34:38;23249.59;;;-147.39;76.64
3524;BME280;1776;53.330;11.498;2023-03-25T00:37:14;23213.00;;;-147.39;76.57
3524;BME280;1776;53.330;11.498;2023-03-25T00:39:45;23213.00;;;-147.39;76.70
3524;BME280;1776;53.330;11.498;2023-03-25T00:42:11;23202.84;;;-147.39;77.02
3524;BME280;1776;53.330;11.498;2023-03-25T00:44:38;23174.38;;;-147.39;76.74
3524;BME280;1776;53.330;11.498;2023-03-25T00:47:03;23186.56;;;-147.39;76.82
3524;BME280;1776;53.330;11.498;2023-03-25T00:49:29;23255.69;;;-147.39;77.34
3524;BME280;1776;53.330;11.498;2023-03-25T00:51:54;23186.56;;;-147.39;77.28
3524;BME280;1776;53.330;11.498;2023-03-25T00:54:21;23208.94;;;-147.39;77.55
3524;BME280;1776;53.330;11.498;2023-03-25T00:56:47;23170.31;;;-147.39;77.07
3524;BME280;1776;53.330;11.498;2023-03-25T00:59:13;23174.38;;;-147.39;77.53
3524;BME280;1776;53.330;11.498;2023-03-25T01:01:38;23188.59;;;-147.39;77.44
3524;BME280;1776;53.330;11.498;2023-03-25T01:04:05;23168.28;;;-147.39;77.06
3524;BME280;1776;53.330;11.498;2023-03-25T01:06:36;23160.16;;;-147.39;77.17
3524;BME280;1776;53.330;11.498;2023-03-25T01:09:05;23125.59;;;-147.39;77.21
3524;BME280;1776;53.330;11.498;2023-03-25T01:11:32;23160.16;;;-147.39;77.34
3524;BME280;1776;53.330;11.498;2023-03-25T01:14:04;23196.75;;;-147.39;77.59
3524;BME280;1776;53.330;11.498;2023-03-25T01:16:31;23149.97;;;-147.39;77.82
3524;BME280;1776;53.330;11.498;2023-03-25T01:18:57;23172.34;;;-147.39;77.57
3524;BME280;1776;53.330;11.498;2023-03-25T01:21:22;22784.09;;;-147.39;77.68
3524;BME280;1776;53.330;11.498;2023-03-25T01:23:47;23107.28;;;-147.39;77.63
3524;BME280;1776;53.330;11.498;2023-03-25T01:26:13;23152.03;;;-147.39;77.38
3524;BME280;1776;53.330;11.498;2023-03-25T01:28:43;23084.94;;;-147.39;77.44
3524;BME280;1776;53.330;11.498;2023-03-25T01:31:11;23152.03;;;-147.39;77.56
3524;BME280;1776;53.330;11.498;2023-03-25T01:33:37;23225.19;;;-147.39;77.55
3524;BME280;1776;53.330;11.498;2023-03-25T01:36:04;23145.91;;;-147.39;77.49
3524;BME280;1776;53.330;11.498;2023-03-25T01:38:34;23145.91;;;-147.39;77.59
3524;BME280;1776;53.330;11.498;2023-03-25T01:41:00;23091.03;;;-147.39;77.65
3524;BME280;1776;53.330;11.498;2023-03-25T01:43:25;23103.22;;;-147.39;77.25
3524;BME280;1776;53.330;11.498;2023-03-25T01:45:51;23194.72;;;-147.39;77.53
3524;BME280;1776;53.330;11.498;2023-03-25T01:48:18;23107.28;;;-147.39;77.07
3524;BME280;1776;53.330;11.498;2023-03-25T01:50:52;23139.81;;;-147.39;77.37
3524;BME280;1776;53.330;11.498;2023-03-25T01:53:18;23131.69;;;-147.39;77.42
3524;BME280;1776;53.330;11.498;2023-03-25T01:55:44;23109.34;;;-147.39;77.67
3524;BME280;1776;53.330;11.498;2023-03-25T01:58:11;23089.00;;;-147.39;77.61
3524;BME280;1776;53.330;11.498;2023-03-25T02:00:41;23093.06;;;-147.39;77.88
3524;BME280;1776;53.330;11.498;2023-03-25T02:03:09;23070.72;;;-147.39;77.46
3524;BME280;1776;53.330;11.498;2023-03-25T02:05:57;23109.34;;;-147.39;77.26
3524;BME280;1776;53.330;11.498;2023-03-25T02:08:24;23107.28;;;-147.39;77.17
3524;BME280;1776;53.330;11.498;2023-03-25T02:10:49;23125.59;;;-147.39;77.26
3524;BME280;1776;53.330;11.498;2023-03-25T02:13:16;23111.38;;;-147.39;76.60
3524;BME280;1776;53.330;11.498;2023-03-25T02:16:05;23137.78;;;-147.39;76.78
3524;BME280;1776;53.330;11.498;2023-03-25T02:18:51;23117.47;;;-147.39;76.87
3524;BME280;1776;53.330;11.498;2023-03-25T02:21:43;23099.16;;;-147.39;76.65
3524;BME280;1776;53.330;11.498;2023-03-25T02:24:35;23089.00;;;-147.39;76.52
3524;BME280;1776;53.330;11.498;2023-03-25T02:27:36;23111.38;;;-147.39;76.18
3524;BME280;1776;53.330;11.498;2023-03-25T02:36:17;23135.75;;;-147.39;75.81
3524;BME280;1776;53.330;11.498;2023-03-25T02:40:07;23137.78;;;-147.39;76.00
3524;BME280;1776;53.330;11.498;2023-03-25T02:42:30;23131.69;;;-147.39;75.95
3524;BME280;1776;53.330;11.498;2023-03-25T02:45:00;23131.69;;;-147.39;76.02
3524;BME280;1776;53.330;11.498;2023-03-25T02:47:33;23121.53;;;-147.39;75.71
3524;BME280;1776;53.330;11.498;2023-03-25T02:50:13;23174.38;;;-147.39;75.79
3524;BME280;1776;53.330;11.498;2023-03-25T02:52:43;23180.47;;;-147.39;75.37
3524;BME280;1776;53.330;11.498;2023-03-25T02:55:12;23115.44;;;-147.39;75.80
3524;BME280;1776;53.330;11.498;2023-03-25T02:57:41;23145.91;;;-147.39;76.18
3524;BME280;1776;53.330;11.498;2023-03-25T03:00:09;23117.47;;;-147.39;75.96
3524;BME280;1776;53.330;11.498;2023-03-25T03:02:52;23141.84;;;-147.39;75.77
3524;BME280;1776;53.330;11.498;2023-03-25T03:08:20;23109.34;;;-147.39;75.64
3524;BME280;1776;53.330;11.498;2023-03-25T03:16:27;23176.41;;;-147.39;75.33
3524;BME280;1776;53.330;11.498;2023-03-25T03:19:07;23131.69;;;-147.39;75.13
3524;BME280;1776;53.330;11.498;2023-03-25T03:27:32;23166.25;;;-147.39;75.22
3524;BME280;1776;53.330;11.498;2023-03-25T03:30:06;23133.72;;;-147.39;75.49
3524;BME280;1776;53.330;11.498;2023-03-25T03:32:48;23158.13;;;-147.39;74.89
3524;BME280;1776;53.330;11.498;2023-03-25T03:35:28;23113.41;;;-147.39;74.51
3524;BME280;1776;53.330;11.498;2023-03-25T03:38:01;23127.63;;;-147.39;74.80
3524;BME280;1776;53.330;11.498;2023-03-25T03:40:30;23154.06;;;-147.39;74.88
3524;BME280;1776;53.330;11.498;2023-03-25T03:42:59;23091.03;;;-147.39;75.04
3524;BME280;1776;53.330;11.498;2023-03-25T03:45:33;23158.13;;;-147.39;74.87
3524;BME280;1776;53.330;11.498;2023-03-25T03:48:04;22607.28;;;-147.39;74.90
3524;BME280;1776;53.330;11.498;2023-03-25T03:50:38;23143.88;;;-147.39;74.91
3524;BME280;1776;53.330;11.498;2023-03-25T03:53:15;23113.41;;;-147.39;74.89
3524;BME280;1776;53.330;11.498;2023-03-25T03:55:49;23123.56;;;-147.39;74.83
3524;BME280;1776;53.330;11.498;2023-03-25T03:58:29;23154.06;;;-147.39;74.83
3524;BME280;1776;53.330;11.498;2023-03-25T04:01:13;23113.41;;;-147.39;75.04
3524;BME280;1776;53.330;11.498;2023-03-25T04:03:45;23131.69;;;-147.39;75.23
3524;BME280;1776;53.330;11.498;2023-03-25T04:06:20;23072.75;;;-147.39;75.10
3524;BME280;1776;53.330;11.498;2023-03-25T04:11:38;23139.81;;;-147.39;75.15
3524;BME280;1776;53.330;11.498;2023-03-25T04:14:06;23095.09;;;-147.39;75.31
3524;BME280;1776;53.330;11.498;2023-03-25T04:16:33;23095.09;;;-147.39;75.83
3524;BME280;1776;53.330;11.498;2023-03-25T04:18:58;23072.75;;;-147.39;76.54
3524;BME280;1776;53.330;11.498;2023-03-25T04:21:23;23062.56;;;-147.39;76.69
3524;BME280;1776;53.330;11.498;2023-03-25T04:23:49;23123.56;;;-147.39;77.29
3524;BME280;1776;53.330;11.498;2023-03-25T04:26:15;23052.41;;;-147.39;77.38
3524;BME280;1776;53.330;11.498;2023-03-25T04:28:41;23034.13;;;-147.39;77.53
3524;BME280;1776;53.330;11.498;2023-03-25T04:31:13;23013.78;;;-147.39;77.80
3524;BME280;1776;53.330;11.498;2023-03-25T04:33:40;23036.16;;;-147.39;77.57
3524;BME280;1776;53.330;11.498;2023-03-25T04:36:06;22999.56;;;-147.39;76.99
3524;BME280;1776;53.330;11.498;2023-03-25T04:38:31;23068.69;;;-147.39;77.21
3524;BME280;1776;53.330;11.498;2023-03-25T04:40:57;23060.53;;;-147.39;77.23
3524;BME280;1776;53.330;11.498;2023-03-25T04:43:22;23056.47;;;-147.39;77.03
3524;BME280;1776;53.330;11.498;2023-03-25T04:45:47;23064.59;;;-147.39;76.75
3524;BME280;1776;53.330;11.498;2023-03-25T04:48:29;23072.75;;;-147.39;76.42
3524;BME280;1776;53.330;11.498;2023-03-25T04:50:56;23052.41;;;-147.39;76.52
3524;BME280;1776;53.330;11.498;2023-03-25T04:53:23;23076.81;;;-147.39;76.58
3524;BME280;1776;53.330;11.498;2023-03-25T04:55:49;23044.28;;;-147.39;76.68
3524;BME280;1776;53.330;11.498;2023-03-25T04:58:16;23054.44;;;-147.39;76.67
3524;BME280;1776;53.330;11.498;2023-03-25T05:00:43;23078.84;;;-147.39;76.63
3524;BME280;1776;53.330;11.498;2023-03-25T05:03:09;23036.16;;;-147.39;76.90
3524;BME280;1776;53.330;11.498;2023-03-25T05:05:36;23040.22;;;-147.39;76.99
3524;BME280;1776;53.330;11.498;2023-03-25T05:08:02;23040.22;;;-147.39;77.23
3524;BME280;1776;53.330;11.498;2023-03-25T05:10:27;23044.28;;;-147.39;77.15
3524;BME280;1776;53.330;11.498;2023-03-25T05:13:04;23052.41;;;-147.39;77.27
3524;BME280;1776;53.330;11.498;2023-03-25T05:15:32;23066.66;;;-147.39;77.47
3524;BME280;1776;53.330;11.498;2023-03-25T05:18:00;23062.56;;;-147.39;77.97
3524;BME280;1776;53.330;11.498;2023-03-25T05:20:26;23038.19;;;-147.39;78.22
3524;BME280;1776;53.330;11.498;2023-03-25T05:22:51;23017.84;;;-147.39;77.96
3524;BME280;1776;53.330;11.498;2023-03-25T05:25:17;23028.03;;;-147.39;78.20
3524;BME280;1776;53.330;11.498;2023-03-25T05:27:46;23040.22;;;-147.39;78.24
3524;BME280;1776;53.330;11.498;2023-03-25T05:30:11;22969.06;;;-147.39;78.91
3524;BME280;1776;53.330;11.498;2023-03-25T05:32:37;22952.81;;;-147.39;79.47
3524;BME280;1776;53.330;11.498;2023-03-25T05:35:05;22956.88;;;-147.39;79.60
3524;BME280;1776;53.330;11.498;2023-03-25T05:37:31;22879.63;;;-147.39;79.53
3524;BME280;1776;53.330;11.498;2023-03-25T05:39:56;22902.00;;;-147.39;80.04
3524;BME280;1776;53.330;11.498;2023-03-25T05:42:22;22991.44;;;-147.39;79.83
3524;BME280;1776;53.330;11.498;2023-03-25T05:44:51;22910.13;;;-147.39;79.81
3524;BME280;1776;53.330;11.498;2023-03-25T05:47:23;22934.53;;;-147.39;79.91
3524;BME280;1776;53.330;11.498;2023-03-25T05:49:50;22920.28;;;-147.39;79.68
3524;BME280;1776;53.330;11.498;2023-03-25T05:52:17;22928.41;;;-147.39;79.42
3524;BME280;1776;53.330;11.498;2023-03-25T05:54:44;22914.19;;;-147.39;79.35
3524;BME280;1776;53.330;11.498;2023-03-25T05:57:11;22938.59;;;-147.39;79.11
3524;BME280;1776;53.330;11.498;2023-03-25T05:59:36;22987.38;;;-147.39;78.96
3524;BME280;1776;53.330;11.498;2023-03-25T06:02:06;22956.88;;;-147.39;79.22
3524;BME280;1776;53.330;11.498;2023-03-25T06:04:35;22958.91;;;-147.39;79.12
3524;BME280;1776;53.330;11.498;2023-03-25T06:07:09;22942.66;;;-147.39;78.97
3524;BME280;1776;53.330;11.498;2023-03-25T06:09:39;22973.13;;;-147.39;78.70
3524;BME280;1776;53.330;11.498;2023-03-25T06:12:10;22924.34;;;-147.39;78.45
3524;BME280;1776;53.330;11.498;2023-03-25T06:14:35;22493.47;;;-147.39;78.59
3524;BME280;1776;53.330;11.498;2023-03-25T06:17:01;22965.00;;;-147.39;78.22
3524;BME280;1776;53.330;11.498;2023-03-25T06:19:26;23013.78;;;-147.39;78.24
3524;BME280;1776;53.330;11.498;2023-03-25T06:21:51;22971.09;;;-147.39;77.80
3524;BME280;1776;53.330;11.498;2023-03-25T06:24:17;23019.88;;;-147.39;77.76
3524;BME280;1776;53.330;11.498;2023-03-25T06:26:42;22975.16;;;-147.39;77.56
3524;BME280;1776;53.330;11.498;2023-03-25T06:29:08;23003.63;;;-147.39;77.31
3524;BME280;1776;53.330;11.498;2023-03-25T06:31:33;23034.13;;;-147.39;76.78
3524;BME280;1776;53.330;11.498;2023-03-25T06:33:58;23015.81;;;-147.39;76.69
3524;BME280;1776;53.330;11.498;2023-03-25T06:36:25;22991.44;;;-147.39;76.31
3524;BME280;1776;53.330;11.498;2023-03-25T06:38:52;23007.69;;;-147.39;76.40
3524;BME280;1776;53.330;11.498;2023-03-25T06:41:18;23044.28;;;-147.39;76.26
3524;BME280;1776;53.330;11.498;2023-03-25T06:43:49;23076.81;;;-147.39;75.79
3524;BME280;1776;53.330;11.498;2023-03-25T06:46:15;23076.81;;;-147.39;75.91
3524;BME280;1776;53.330;11.498;2023-03-25T06:48:40;23062.56;;;-147.39;76.02
3524;BME280;1776;53.330;11.498;2023-03-25T06:51:06;23058.50;;;-147.39;75.67
3524;BME280;1776;53.330;11.498;2023-03-25T06:53:31;23058.50;;;-147.39;76.04
3524;BME280;1776;53.330;11.498;2023-03-25T06:55:57;23119.50;;;-147.39;76.22
3524;BME280;1776;53.330;11.498;2023-03-25T06:58:22;23030.06;;;-147.39;76.35
3524;BME280;1776;53.330;11.498;2023-03-25T07:00:55;23034.13;;;-147.39;76.09
3524;BME280;1776;53.330;11.498;2023-03-25T07:03:20;23056.47;;;-147.39;76.42
3524;BME280;1776;53.330;11.498;2023-03-25T07:05:49;23030.06;;;-147.39;76.27
3524;BME280;1776;53.330;11.498;2023-03-25T07:08:15;23038.19;;;-147.39;76.31
3524;BME280;1776;53.330;11.498;2023-03-25T07:10:40;23003.63;;;-147.39;76.18
3524;BME280;1776;53.330;11.498;2023-03-25T07:13:05;23011.75;;;-147.39;76.25
3524;BME280;1776;53.330;11.498;2023-03-25T07:15:30;23054.44;;;-147.39;76.40
3524;BME280;1776;53.330;11.498;2023-03-25T07:17:56;23044.28;;;-147.39;76.47
3524;BME280;1776;53.330;11.498;2023-03-25T07:20:21;23050.38;;;-147.39;76.41
3524;BME280;1776;53.330;11.498;2023-03-25T07:22:46;23060.53;;;-147.39;76.59
3524;BME280;1776;53.330;11.498;2023-03-25T07:25:12;23003.63;;;-147.39;76.61
3524;BME280;1776;53.330;11.498;2023-03-25T07:27:37;23032.09;;;-147.39;76.98
3524;BME280;1776;53.330;11.498;2023-03-25T07:30:03;23119.50;;;-147.39;76.81
3524;BME280;1776;53.330;11.498;2023-03-25T07:32:29;23028.03;;;-147.39;76.96
3524;BME280;1776;53.330;11.498;2023-03-25T07:34:54;23070.72;;;-147.39;77.15
3524;BME280;1776;53.330;11.498;2023-03-25T07:37:19;23011.75;;;-147.39;77.59
3524;BME280;1776;53.330;11.498;2023-03-25T07:39:45;22981.28;;;-147.39;77.90
3524;BME280;1776;53.330;11.498;2023-03-25T07:42:10;22962.97;;;-147.39;77.88
3524;BME280;1776;53.330;11.498;2023-03-25T07:44:35;22995.50;;;-147.39;78.23
3524;BME280;1776;53.330;11.498;2023-03-25T07:47:00;22987.38;;;-147.39;78.03
3524;BME280;1776;53.330;11.498;2023-03-25T07:49:26;22991.44;;;-147.39;77.86
3524;BME280;1776;53.330;11.498;2023-03-25T07:51:51;23032.09;;;-147.39;78.03
3524;BME280;1776;53.330;11.498;2023-03-25T07:54:16;23036.16;;;-147.39;78.11
3524;BME280;1776;53.330;11.498;2023-03-25T07:56:42;22991.44;;;-147.39;77.59
3524;BME280;1776;53.330;11.498;2023-03-25T07:59:07;23005.66;;;-147.39;77.02
3524;BME280;1776;53.330;11.498;2023-03-25T08:01:33;23013.78;;;-147.39;77.17
3524;BME280;1776;53.330;11.498;2023-03-25T08:03:58;23005.66;;;-147.39;76.48
3524;BME280;1776;53.330;11.498;2023-03-25T08:06:24;23082.91;;;-147.39;76.10
3524;BME280;1776;53.330;11.498;2023-03-25T08:08:49;23044.28;;;-147.39;76.34
3524;BME280;1776;53.330;11.498;2023-03-25T08:11:14;23117.47;;;-147.39;74.84
3524;BME280;1776;53.330;11.498;2023-03-25T08:13:40;23107.28;;;-147.39;74.15
3524;BME280;1776;53.330;11.498;2023-03-25T08:16:13;23117.47;;;-147.39;72.83
3524;BME280;1776;53.330;11.498;2023-03-25T08:18:38;23194.72;;;-147.39;72.83
3524;BME280;1776;53.330;11.498;2023-03-25T08:21:04;23235.38;;;-147.39;71.82
3524;BME280;1776;53.330;11.498;2023-03-25T08:23:30;23217.06;;;-147.39;70.28
3524;BME280;1776;53.330;11.498;2023-03-25T08:25:55;23247.56;;;-147.39;70.02
3524;BME280;1776;53.330;11.498;2023-03-25T08:28:21;23286.19;;;-147.39;69.58
3524;BME280;1776;53.330;11.498;2023-03-25T08:30:48;23271.94;;;-147.39;69.85
3524;BME280;1776;53.330;11.498;2023-03-25T08:33:15;23247.56;;;-147.39;69.86
3524;BME280;1776;53.330;11.498;2023-03-25T08:35:42;23316.69;;;-147.39;68.79
3524;BME280;1776;53.330;11.498;2023-03-25T08:38:08;23355.31;;;-147.39;68.92
3524;BME280;1776;53.330;11.498;2023-03-25T08:40:35;23347.16;;;-147.39;68.58
3524;BME280;1776;53.330;11.498;2023-03-25T08:43:03;23337.00;;;-147.39;68.75
3524;BME280;1776;53.330;11.498;2023-03-25T08:45:29;23353.28;;;-147.39;67.84
3524;BME280;1776;53.330;11.498;2023-03-25T08:47:56;23377.66;;;-147.39;67.81
3524;BME280;1776;53.330;11.498;2023-03-25T08:50:22;23418.31;;;-147.39;67.41
3524;BME280;1776;53.330;11.498;2023-03-25T08:52:47;23385.78;;;-147.39;67.25
3524;BME280;1776;53.330;11.498;2023-03-25T08:55:12;23416.28;;;-147.39;67.13
3524;BME280;1776;53.330;11.498;2023-03-25T08:57:40;23446.78;;;-147.39;66.55
3524;BME280;1776;53.330;11.498;2023-03-25T09:00:06;23450.84;;;-147.39;66.10
3524;BME280;1776;53.330;11.498;2023-03-25T09:02:37;23546.41;;;-147.39;64.85
3524;BME280;1776;53.330;11.498;2023-03-25T09:05:02;23552.50;;;-147.39;63.60
3524;BME280;1776;53.330;11.498;2023-03-25T09:07:28;23617.56;;;-147.39;63.02
3524;BME280;1776;53.330;11.498;2023-03-25T09:09:54;23625.69;;;-147.39;63.37
3524;BME280;1776;53.330;11.498;2023-03-25T09:12:19;23660.25;;;-147.39;62.74
3524;BME280;1776;53.330;11.498;2023-03-25T09:14:44;23676.50;;;-147.39;62.74
3524;BME280;1776;53.330;11.498;2023-03-25T09:17:10;23650.09;;;-147.39;62.63
3524;BME280;1776;53.330;11.498;2023-03-25T09:19:35;23650.09;;;-147.39;63.24
3524;BME280;1776;53.330;11.498;2023-03-25T09:22:02;23753.75;;;-147.39;62.67
3524;BME280;1776;53.330;11.498;2023-03-25T09:24:28;23696.84;;;-147.39;62.17
3524;BME280;1776;53.330;11.498;2023-03-25T09:26:53;23729.38;;;-147.39;61.57
3524;BME280;1776;53.330;11.498;2023-03-25T09:29:18;23806.63;;;-147.39;60.44
3524;BME280;1776;53.330;11.498;2023-03-25T09:31:44;23845.25;;;-147.39;60.38
3524;BME280;1776;53.330;11.498;2023-03-25T09:34:09;23837.13;;;-147.39;61.22
3524;BME280;1776;53.330;11.498;2023-03-25T09:36:35;23792.41;;;-147.39;61.53
3524;BME280;1776;53.330;11.498;2023-03-25T09:39:01;23735.47;;;-147.39;62.46
3524;BME280;1776;53.330;11.498;2023-03-25T09:41:37;23707.00;;;-147.39;63.16
3524;BME280;1776;53.330;11.498;2023-03-25T09:44:21;23696.84;;;-147.39;62.19
3524;BME280;1776;53.330;11.498;2023-03-25T09:46:49;23737.50;;;-147.39;61.59
3524;BME280;1776;53.330;11.498;2023-03-25T09:49:18;23857.47;;;-147.39;61.19
3524;BME280;1776;53.330;11.498;2023-03-25T09:51:46;23709.03;;;-147.39;61.56
3524;BME280;1776;53.330;11.498;2023-03-25T09:54:31;23707.00;;;-147.39;62.74
3524;BME280;1776;53.330;11.498;2023-03-25T09:57:04;23656.19;;;-147.39;63.54
3524;BME280;1776;53.330;11.498;2023-03-25T09:59:39;23601.28;;;-147.39;65.42
3524;BME280;1776;53.330;11.498;2023-03-25T10:02:26;23560.63;;;-147.39;67.21
3524;BME280;1776;53.330;11.498;2023-03-25T10:07:54;23436.63;;;-147.39;70.72
3524;BME280;1776;53.330;11.498;2023-03-25T10:10:35;23369.53;;;-147.39;72.46
3524;BME280;1776;53.330;11.498;2023-03-25T10:13:13;23385.78;;;-147.39;72.89
3524;BME280;1776;53.330;11.498;2023-03-25T10:16:02;23489.47;;;-147.39;69.61
3524;BME280;1776;53.330;11.498;2023-03-25T10:21:29;23550.47;;;-147.39;67.46
3524;BME280;1776;53.330;11.498;2023-03-25T10:24:11;23613.47;;;-147.39;67.43
3524;BME280;1776;53.330;11.498;2023-03-25T10:26:59;23548.44;;;-147.39;67.43
3524;BME280;1776;53.330;11.498;2023-03-25T10:29:31;23572.81;;;-147.39;66.51
3524;BME280;1776;53.330;11.498;2023-03-25T10:32:04;23611.44;;;-147.39;66.94
3524;BME280;1776;53.330;11.498;2023-03-25T10:34:49;23717.16;;;-147.39;63.50
3524;BME280;1776;53.330;11.498;2023-03-25T10:37:24;23774.09;;;-147.39;61.97
3524;BME280;1776;53.330;11.498;2023-03-25T10:39:54;23778.16;;;-147.39;62.37
3524;BME280;1776;53.330;11.498;2023-03-25T10:42:26;23755.81;;;-147.39;61.89
3524;BME280;1776;53.330;11.498;2023-03-25T10:44:55;23772.06;;;-147.39;62.50
3524;BME280;1776;53.330;11.498;2023-03-25T10:47:28;23698.88;;;-147.39;62.54
3524;BME280;1776;53.330;11.498;2023-03-25T10:49:55;23753.75;;;-147.39;62.94
3524;BME280;1776;53.330;11.498;2023-03-25T10:52:23;23806.63;;;-147.39;62.44
3524;BME280;1776;53.330;11.498;2023-03-25T10:54:52;23784.25;;;-147.39;61.06
3524;BME280;1776;53.330;11.498;2023-03-25T10:57:22;23753.75;;;-147.39;61.98
3524;BME280;1776;53.330;11.498;2023-03-25T10:59:57;23664.31;;;-147.39;62.84
3524;BME280;1776;53.330;11.498;2023-03-25T11:02:27;23709.03;;;-147.39;63.22
3524;BME280;1776;53.330;11.498;2023-03-25T11:05:02;23735.47;;;-147.39;63.47
3524;BME280;1776;53.330;11.498;2023-03-25T11:07:38;23717.16;;;-147.39;63.90
3524;BME280;1776;53.330;11.498;2023-03-25T11:10:23;23759.88;;;-147.39;60.09
3524;BME280;1776;53.330;11.498;2023-03-25T11:12:51;23676.50;;;-147.39;64.28
3524;BME280;1776;53.330;11.498;2023-03-25T11:15:20;23519.97;;;-147.39;67.88
3524;BME280;1776;53.330;11.498;2023-03-25T11:17:53;23483.38;;;-147.39;69.97
3524;BME280;1776;53.330;11.498;2023-03-25T11:20:21;23420.34;;;-147.39;71.67
3524;BME280;1776;53.330;11.498;2023-03-25T11:22:52;23385.78;;;-147.39;72.87
3524;BME280;1776;53.330;11.498;2023-03-25T11:25:23;23398.00;;;-147.39;72.87
3524;BME280;1776;53.330;11.498;2023-03-25T11:28:02;23261.78;;;-147.39;74.13
3524;BME280;1776;53.330;11.498;2023-03-25T11:30:28;23202.84;;;-147.39;74.54
3524;BME280;1776;53.330;11.498;2023-03-25T11:33:13;23168.28;;;-147.39;75.44
3524;BME280;1776;53.330;11.498;2023-03-25T11:35:42;23139.81;;;-147.39;75.78
3524;BME280;1776;53.330;11.498;2023-03-25T11:38:17;23143.88;;;-147.39;76.32
3524;BME280;1776;53.330;11.498;2023-03-25T11:40:52;23168.28;;;-147.39;75.57
3524;BME280;1776;53.330;11.498;2023-03-25T11:43:21;23174.38;;;-147.39;75.18
3524;BME280;1776;53.330;11.498;2023-03-25T11:45:48;23162.19;;;-147.39;75.26
3524;BME280;1776;53.330;11.498;2023-03-25T11:48:19;23206.91;;;-147.39;74.79
3524;BME280;1776;53.330;11.498;2023-03-25T11:50:54;23137.78;;;-147.39;75.73
3524;BME280;1776;53.330;11.498;2023-03-25T11:53:20;23280.09;;;-147.39;74.26
3524;BME280;1776;53.330;11.498;2023-03-25T11:55:54;23324.81;;;-147.39;74.46
3524;BME280;1776;53.330;11.498;2023-03-25T11:58:23;23194.72;;;-147.39;75.24
3524;BME280;1776;53.330;11.498;2023-03-25T12:01:04;23225.19;;;-147.39;74.37
3524;BME280;1776;53.330;11.498;2023-03-25T12:03:32;23219.09;;;-147.39;74.80
3524;BME280;1776;53.330;11.498;2023-03-25T12:06:20;23194.72;;;-147.39;75.25
3524;BME280;1776;53.330;11.498;2023-03-25T12:08:51;23196.75;;;-147.39;73.99
3524;BME280;1776;53.330;11.498;2023-03-25T12:11:30;23227.22;;;-147.39;73.82
3524;BME280;1776;53.330;11.498;2023-03-25T12:14:13;23249.59;;;-147.39;73.45
3524;BME280;1776;53.330;11.498;2023-03-25T12:16:53;23241.47;;;-147.39;73.28
3524;BME280;1776;53.330;11.498;2023-03-25T12:22:01;23322.78;;;-147.39;72.67
3524;BME280;1776;53.330;11.498;2023-03-25T12:27:36;23432.56;;;-147.39;70.30
3524;BME280;1776;53.330;11.498;2023-03-25T12:41:52;23461.00;;;-147.39;68.44
3524;BME280;1776;53.330;11.498;2023-03-25T13:00:46;23452.88;;;-147.39;69.37
3524;BME280;1776;53.330;11.498;2023-03-25T13:06:31;23438.66;;;-147.39;70.75
3524;BME280;1776;53.330;11.498;2023-03-25T13:12:09;23328.88;;;-147.39;73.50
3524;BME280;1776;53.330;11.498;2023-03-25T13:14:43;23292.28;;;-147.39;73.90
3524;BME280;1776;53.330;11.498;2023-03-25T13:17:27;23194.72;;;-147.39;76.86
3524;BME280;1776;53.330;11.498;2023-03-25T13:19:59;23166.25;;;-147.39;77.74
3524;BME280;1776;53.330;11.498;2023-03-25T13:22:33;23117.47;;;-147.39;78.22
3524;BME280;1776;53.330;11.498;2023-03-25T13:25:02;23107.28;;;-147.39;78.21
3524;BME280;1776;53.330;11.498;2023-03-25T13:27:34;23091.03;;;-147.39;77.40
3524;BME280;1776;53.330;11.498;2023-03-25T13:30:03;23050.38;;;-147.39;78.51
3524;BME280;1776;53.330;11.498;2023-03-25T13:32:40;23046.31;;;-147.39;80.03
3524;BME280;1776;53.330;11.498;2023-03-25T13:37:51;23200.81;;;-147.39;76.84
3524;BME280;1776;53.330;11.498;2023-03-25T13:45:50;23363.44;;;-147.39;73.42
3524;BME280;1776;53.330;11.498;2023-03-25T13:48:22;23395.97;;;-147.39;71.50
3524;BME280;1776;53.330;11.498;2023-03-25T13:50:52;23402.06;;;-147.39;71.71
3524;BME280;1776;53.330;11.498;2023-03-25T13:53:29;23420.34;;;-147.39;71.71
3524;BME280;1776;53.330;11.498;2023-03-25T13:56:35;23450.84;;;-147.39;70.20
3524;BME280;1776;53.330;11.498;2023-03-25T13:59:25;23458.97;;;-147.39;69.92
3524;BME280;1776;53.330;11.498;2023-03-25T14:07:42;23495.56;;;-147.39;69.69
3524;BME280;1776;53.330;11.498;2023-03-25T14:10:36;23534.19;;;-147.39;69.20
3524;BME280;1776;53.330;11.498;2023-03-25T14:13:10;23562.66;;;-147.39;68.68
3524;BME280;1776;53.330;11.498;2023-03-25T14:15:41;23526.06;;;-147.39;68.74
3524;BME280;1776;53.330;11.498;2023-03-25T14:18:16;23544.38;;;-147.39;69.47
3524;BME280;1776;53.330;11.498;2023-03-25T14:20:42;23479.31;;;-147.39;69.63
3524;BME280;1776;53.330;11.498;2023-03-25T14:23:15;23499.63;;;-147.39;69.50
3524;BME280;1776;53.330;11.498;2023-03-25T14:25:52;23442.72;;;-147.39;71.25
3524;BME280;1776;53.330;11.498;2023-03-25T14:28:30;23442.72;;;-147.39;71.27